Time;durP1;ratioP1;P1;durP2;ratioP2;P2;SDS_P1;SDS_P2;PMS_P1;PMS_P2;Temp;Humidity;BMP_temperature;BMP_pressure;BME280_temperature;BME280_humidity;BME280_pressure;Samples;Min_cycle;Max_cycle;Signal;HPM_P1;HPM_P2
2023/10/02 00:03:33;;;;;;;17.90;8.05;;;17.50;93.30;;;;;;4977064;28;20085;-78
2023/10/02 00:05:59;;;;;;;16.30;8.13;;;17.40;93.40;;;;;;4959327;28;20038;-78
2023/10/02 00:08:40;;;;;;;17.15;8.45;;;17.50;93.60;;;;;;4976742;28;20487;-79
2023/10/02 00:11:36;;;;;;;16.45;8.48;;;17.40;93.70;;;;;;4959077;28;20390;-78
2023/10/02 00:14:19;;;;;;;16.40;7.85;;;17.40;93.90;;;;;;4976278;28;20418;-78
2023/10/02 00:17:00;;;;;;;17.13;8.32;;;17.40;94.00;;;;;;4976371;28;20026;-78
2023/10/02 00:19:31;;;;;;;17.63;8.95;;;17.40;94.10;;;;;;4976553;28;20117;-78
2023/10/02 00:21:59;;;;;;;17.40;8.50;;;17.40;94.30;;;;;;4976362;28;20066;-78
2023/10/02 00:24:26;;;;;;;16.13;8.13;;;17.40;94.40;;;;;;4958792;28;20130;-78
2023/10/02 00:26:57;;;;;;;15.27;7.68;;;17.40;94.50;;;;;;4958920;28;20038;-78
2023/10/02 00:29:23;;;;;;;16.10;7.63;;;17.40;94.60;;;;;;4976233;28;20566;-77
2023/10/02 00:31:50;;;;;;;18.55;8.65;;;17.40;94.60;;;;;;4976342;28;20035;-78
2023/10/02 00:34:16;;;;;;;13.93;7.65;;;17.40;94.80;;;;;;4976143;28;20494;-78
2023/10/02 00:36:42;;;;;;;17.40;8.10;;;17.30;94.80;;;;;;4975178;28;20031;-81
2023/10/02 00:39:41;;;;;;;14.52;7.57;;;17.30;94.90;;;;;;4976200;28;20037;-80
2023/10/02 00:44:56;;;;;;;13.65;7.50;;;17.30;95.00;;;;;;4975868;28;20046;-80
2023/10/02 00:50:27;;;;;;;15.93;7.78;;;17.30;95.20;;;;;;4922839;28;20466;-80
2023/10/02 00:53:03;;;;;;;14.60;7.68;;;17.20;95.20;;;;;;4974498;28;20065;-80
2023/10/02 00:55:32;;;;;;;15.93;7.85;;;17.30;95.30;;;;;;4958434;28;20062;-77
2023/10/02 00:58:08;;;;;;;15.60;8.18;;;17.20;95.30;;;;;;4975787;28;20026;-77
2023/10/02 01:00:42;;;;;;;14.77;7.78;;;17.20;95.40;;;;;;4958125;28;20042;-77
2023/10/02 01:03:13;;;;;;;16.50;7.68;;;17.20;95.40;;;;;;4975765;28;20057;-77
2023/10/02 01:05:47;;;;;;;15.52;8.25;;;17.20;95.50;;;;;;4975460;28;20039;-77
2023/10/02 01:08:24;;;;;;;15.70;8.27;;;17.10;95.60;;;;;;4975688;28;20034;-77
2023/10/02 01:10:59;;;;;;;14.90;7.20;;;17.20;95.70;;;;;;4975898;28;20387;-77
2023/10/02 01:13:34;;;;;;;16.10;7.57;;;17.10;95.80;;;;;;4975472;28;20050;-77
2023/10/02 01:16:04;;;;;;;18.10;7.90;;;17.10;95.90;;;;;;4975584;28;20049;-77
2023/10/02 01:18:31;;;;;;;13.27;7.10;;;17.20;95.90;;;;;;4975410;28;20031;-77
2023/10/02 01:21:01;;;;;;;15.35;8.02;;;17.20;96.00;;;;;;4975144;28;20042;-77
2023/10/02 01:23:30;;;;;;;16.60;8.20;;;17.20;96.00;;;;;;4975298;28;20548;-77
2023/10/02 01:25:57;;;;;;;16.85;9.18;;;17.20;96.10;;;;;;4975358;28;20031;-77
2023/10/02 01:28:51;;;;;;;16.55;7.88;;;17.20;96.20;;;;;;4974905;28;20167;-77
2023/10/02 01:31:32;;;;;;;15.97;8.03;;;17.20;96.30;;;;;;4975496;28;20090;-77
2023/10/02 01:33:59;;;;;;;14.88;7.70;;;17.20;96.30;;;;;;4975081;28;20302;-77
2023/10/02 01:36:30;;;;;;;15.77;7.47;;;17.30;96.30;;;;;;4975207;28;20070;-78
2023/10/02 01:38:59;;;;;;;16.27;7.60;;;17.20;96.30;;;;;;4957610;28;20042;-78
2023/10/02 01:41:28;;;;;;;15.27;7.55;;;17.20;96.30;;;;;;4974898;28;20039;-78
2023/10/02 01:43:57;;;;;;;15.38;7.90;;;17.30;96.40;;;;;;4974652;28;20526;-78
2023/10/02 01:46:25;;;;;;;14.63;6.63;;;17.30;96.60;;;;;;4974891;28;20026;-78
2023/10/02 01:48:51;;;;;;;15.95;7.03;;;17.30;96.70;;;;;;4974293;28;20096;-78
2023/10/02 01:51:27;;;;;;;14.68;7.30;;;17.30;97.10;;;;;;4973604;28;20046;-78
2023/10/02 01:53:56;;;;;;;18.02;7.45;;;17.30;96.90;;;;;;4974894;28;20035;-78
2023/10/02 01:56:27;;;;;;;13.77;7.35;;;17.30;96.90;;;;;;4974438;28;20089;-78
2023/10/02 01:58:54;;;;;;;15.68;8.40;;;17.40;97.00;;;;;;4974022;28;20391;-77
2023/10/02 02:01:21;;;;;;;16.90;6.78;;;17.40;97.00;;;;;;4957300;28;20069;-78
2023/10/02 02:03:49;;;;;;;14.80;7.43;;;17.30;97.10;;;;;;4974474;28;20038;-78
2023/10/02 02:06:22;;;;;;;15.90;7.57;;;17.40;97.20;;;;;;4974401;28;20035;-78
2023/10/02 02:08:53;;;;;;;16.60;8.10;;;17.30;97.20;;;;;;4957089;28;20045;-78
2023/10/02 02:11:24;;;;;;;17.23;8.60;;;17.30;97.30;;;;;;4974257;28;20066;-77
2023/10/02 02:13:54;;;;;;;16.95;8.07;;;17.30;97.30;;;;;;4974662;28;20109;-77
2023/10/02 02:16:33;;;;;;;16.13;8.02;;;17.30;97.30;;;;;;4974032;28;20472;-77
2023/10/02 02:19:07;;;;;;;16.13;7.10;;;17.30;97.30;;;;;;4974297;28;20061;-77
2023/10/02 02:21:34;;;;;;;16.27;7.65;;;17.30;97.30;;;;;;4974258;28;20387;-77
2023/10/02 02:24:11;;;;;;;16.67;8.18;;;17.30;97.30;;;;;;4974443;28;20094;-77
2023/10/02 02:26:39;;;;;;;13.05;6.80;;;17.30;97.30;;;;;;4973899;28;20055;-77
2023/10/02 02:29:16;;;;;;;14.95;7.55;;;17.20;97.30;;;;;;4974245;28;20383;-77
2023/10/02 02:31:44;;;;;;;14.50;6.97;;;17.20;97.30;;;;;;4974249;28;20531;-77
2023/10/02 02:34:16;;;;;;;17.60;7.90;;;17.20;97.30;;;;;;4974256;28;20031;-77
2023/10/02 02:36:47;;;;;;;17.35;8.38;;;17.10;97.40;;;;;;4974255;28;20069;-77
2023/10/02 02:39:16;;;;;;;15.75;7.30;;;17.10;97.40;;;;;;4974183;28;20035;-77
2023/10/02 02:42:09;;;;;;;14.05;7.68;;;17.10;97.50;;;;;;4956377;28;20054;-77
2023/10/02 02:44:46;;;;;;;14.60;6.68;;;17.10;97.60;;;;;;4956947;28;20027;-77
2023/10/02 02:47:16;;;;;;;14.60;7.00;;;17.10;97.70;;;;;;4974316;28;20152;-77
2023/10/02 02:49:51;;;;;;;17.45;8.20;;;17.10;97.70;;;;;;4975374;28;20124;-80
2023/10/02 02:52:33;;;;;;;14.18;6.80;;;17.10;97.70;;;;;;4989927;28;20030;-81
2023/10/02 02:55:12;;;;;;;15.45;7.70;;;17.10;97.80;;;;;;4975168;28;20026;-81
2023/10/02 02:57:45;;;;;;;15.40;7.32;;;17.10;97.90;;;;;;4993350;28;20031;-81
2023/10/02 03:00:29;;;;;;;13.57;7.50;;;17.00;97.80;;;;;;4979162;28;20463;-81
2023/10/02 03:02:56;;;;;;;18.38;7.82;;;17.00;97.90;;;;;;4980038;28;20482;-81
2023/10/02 03:05:37;;;;;;;14.60;6.95;;;17.00;97.90;;;;;;4997707;28;20105;-80
2023/10/02 03:08:05;;;;;;;13.93;7.43;;;17.00;98.00;;;;;;4998891;28;20121;-81
2023/10/02 03:10:36;;;;;;;15.00;7.28;;;17.00;98.10;;;;;;4996888;28;20038;-81
2023/10/02 03:13:03;;;;;;;19.98;7.78;;;17.00;98.10;;;;;;4991177;28;20037;-81
2023/10/02 03:15:47;;;;;;;16.92;7.25;;;17.00;98.20;;;;;;4979673;28;20030;-81
2023/10/02 03:18:23;;;;;;;19.48;7.97;;;17.00;98.20;;;;;;4997028;28;20038;-80
2023/10/02 03:20:56;;;;;;;19.67;7.45;;;17.00;98.20;;;;;;4979441;28;20038;-81
2023/10/02 03:23:23;;;;;;;17.42;7.70;;;16.90;98.20;;;;;;4979339;28;20452;-81
2023/10/02 03:25:51;;;;;;;13.95;7.78;;;16.90;98.20;;;;;;4979630;28;20041;-81
2023/10/02 03:28:27;;;;;;;17.00;8.52;;;16.90;98.30;;;;;;4996748;28;20034;-81
2023/10/02 03:30:53;;;;;;;17.27;7.68;;;16.90;98.30;;;;;;4997057;28;20026;-81
2023/10/02 03:33:20;;;;;;;17.30;7.95;;;16.90;98.40;;;;;;4996723;28;20034;-81
2023/10/02 03:36:08;;;;;;;16.90;8.43;;;16.90;98.50;;;;;;4996469;28;20038;-81
2023/10/02 03:38:43;;;;;;;17.05;8.02;;;16.80;98.50;;;;;;4996591;28;20034;-80
2023/10/02 03:41:13;;;;;;;15.55;7.32;;;16.80;98.60;;;;;;4996697;28;20513;-80
2023/10/02 03:43:43;;;;;;;17.38;7.75;;;16.80;98.60;;;;;;4978994;28;20482;-80
2023/10/02 03:46:22;;;;;;;17.58;7.88;;;16.80;98.60;;;;;;4996713;28;20033;-81
2023/10/02 03:48:58;;;;;;;17.75;8.15;;;16.80;98.70;;;;;;4978695;28;20077;-82
2023/10/02 03:51:36;;;;;;;17.40;7.90;;;16.80;98.70;;;;;;4996550;28;20030;-81
2023/10/02 03:54:18;;;;;;;17.38;7.82;;;16.80;98.80;;;;;;4979012;28;20037;-80
2023/10/02 03:56:55;;;;;;;16.27;8.10;;;16.80;98.80;;;;;;4996409;28;20062;-81
2023/10/02 03:59:25;;;;;;;16.52;7.80;;;16.80;98.90;;;;;;4978704;28;20039;-81
2023/10/02 04:01:51;;;;;;;15.48;6.95;;;16.80;98.90;;;;;;4996515;28;20038;-81
2023/10/02 04:06:43;;;;;;;19.75;9.23;;;16.70;98.90;;;;;;4997046;28;20394;-81
2023/10/02 04:11:42;;;;;;;16.00;7.22;;;16.70;99.00;;;;;;4995029;28;20044;-81
2023/10/02 04:14:17;;;;;;;17.58;8.10;;;16.70;99.00;;;;;;4996169;28;20053;-81
2023/10/02 04:16:52;;;;;;;17.35;7.78;;;16.60;99.00;;;;;;4978524;28;20038;-81
2023/10/02 04:19:23;;;;;;;19.10;8.02;;;16.70;99.10;;;;;;4987335;28;20046;-80
2023/10/02 04:21:52;;;;;;;17.83;7.63;;;16.60;99.00;;;;;;4995113;28;20045;-80
2023/10/02 04:24:23;;;;;;;13.52;6.25;;;16.60;99.00;;;;;;4995615;28;20022;-81
2023/10/02 04:26:54;;;;;;;14.40;6.78;;;16.60;98.90;;;;;;4995730;28;20494;-78
2023/10/02 04:29:26;;;;;;;14.10;6.90;;;16.60;98.90;;;;;;4995516;28;20394;-78
2023/10/02 04:32:12;;;;;;;19.50;7.25;;;16.60;98.90;;;;;;4996032;28;20486;-78
2023/10/02 04:34:46;;;;;;;15.93;8.00;;;16.50;98.90;;;;;;4978294;28;20033;-78
2023/10/02 04:37:22;;;;;;;;;;;16.50;98.90;;;;;;4995455;28;20026;-78
2023/10/02 04:42:58;;;;;;;15.20;6.65;;;16.40;98.90;;;;;;4995571;28;20053;-78
2023/10/02 04:45:25;;;;;;;14.43;7.13;;;16.40;98.90;;;;;;4991532;28;20482;-77
2023/10/02 04:47:55;;;;;;;17.00;6.63;;;16.40;98.90;;;;;;4995192;28;20502;-77
2023/10/02 04:52:55;;;;;;;15.35;7.50;;;16.40;99.00;;;;;;4995377;28;20030;-78
2023/10/02 04:55:27;;;;;;;19.17;7.93;;;16.40;99.10;;;;;;4995215;28;20035;-77
2023/10/02 04:58:09;;;;;;;18.40;7.32;;;16.30;99.10;;;;;;4977848;28;20418;-78
2023/10/02 05:00:38;;;;;;;17.45;8.23;;;16.30;99.20;;;;;;4995171;28;20062;-77
2023/10/02 05:03:18;;;;;;;18.88;8.70;;;16.30;99.20;;;;;;4995307;28;20034;-78
2023/10/02 05:05:49;;;;;;;21.05;8.88;;;16.30;99.30;;;;;;4977243;28;20494;-78
2023/10/02 05:08:40;;;;;;;17.08;8.40;;;16.30;99.30;;;;;;4977534;28;20042;-78
2023/10/02 05:11:45;;;;;;;18.95;9.05;;;16.30;99.40;;;;;;4994495;28;20162;-78
2023/10/02 05:16:38;;;;;;;21.08;8.70;;;16.30;99.50;;;;;;4995335;28;20049;-79
2023/10/02 05:19:06;;;;;;;16.45;8.70;;;16.30;99.60;;;;;;4985009;28;20095;-79
2023/10/02 05:21:38;;;;;;;18.20;8.50;;;16.30;99.60;;;;;;4974701;28;20501;-78
2023/10/02 05:24:07;;;;;;;18.42;8.77;;;16.30;99.60;;;;;;4975156;28;20039;-79
2023/10/02 05:26:36;;;;;;;19.30;9.00;;;16.30;99.70;;;;;;4975146;28;20487;-79
2023/10/02 05:29:06;;;;;;;16.30;8.80;;;16.30;99.70;;;;;;4977616;28;20116;-78
2023/10/02 05:31:36;;;;;;;20.35;9.43;;;16.30;99.80;;;;;;4990264;28;20041;-79
2023/10/02 05:34:24;;;;;;;22.67;9.63;;;16.30;99.80;;;;;;4994097;28;20113;-78
2023/10/02 05:39:40;;;;;;;20.30;10.00;;;16.30;99.90;;;;;;4991500;28;20451;-79
2023/10/02 05:42:16;;;;;;;18.27;8.82;;;16.30;99.90;;;;;;4974292;28;20081;-80
2023/10/02 05:44:43;;;;;;;19.73;8.80;;;16.30;99.90;;;;;;4981377;28;20034;-79
2023/10/02 05:47:11;;;;;;;21.45;9.60;;;16.30;99.90;;;;;;4976661;28;20035;-79
2023/10/02 05:49:46;;;;;;;20.92;10.35;;;16.30;99.90;;;;;;4976221;28;20122;-80
2023/10/02 05:52:14;;;;;;;18.05;8.77;;;16.30;99.90;;;;;;4994173;28;20037;-80
2023/10/02 05:54:47;;;;;;;21.70;9.30;;;16.30;99.90;;;;;;4976655;28;20026;-80
2023/10/02 05:57:16;;;;;;;23.27;10.35;;;16.30;99.90;;;;;;4976412;28;20030;-80
2023/10/02 05:59:48;;;;;;;18.27;8.93;;;16.30;99.90;;;;;;4986931;28;20034;-79
2023/10/02 06:02:19;;;;;;;19.77;8.52;;;16.30;99.90;;;;;;4985270;28;20037;-79
2023/10/02 06:04:52;;;;;;;19.60;8.90;;;16.30;99.90;;;;;;4967517;28;20039;-79
2023/10/02 06:07:40;;;;;;;17.20;8.55;;;16.30;99.90;;;;;;4992431;28;20040;-79
2023/10/02 06:10:25;;;;;;;17.23;8.18;;;16.30;99.90;;;;;;4974141;28;20122;-80
2023/10/02 06:12:51;;;;;;;;;;;16.30;99.90;;;;;;4974929;28;20030;-80
2023/10/02 06:18:01;;;;;;;18.00;8.18;;;16.30;99.90;;;;;;4993122;28;20037;-78
2023/10/02 06:20:27;;;;;;;17.58;9.00;;;16.30;99.90;;;;;;4993922;28;20039;-79
2023/10/02 06:23:05;;;;;;;21.13;9.98;;;16.30;99.90;;;;;;4993638;28;20066;-78
2023/10/02 06:25:31;;;;;;;17.35;8.52;;;16.40;99.90;;;;;;4993375;28;20125;-78
2023/10/02 06:28:19;;;;;;;17.92;9.05;;;16.40;99.90;;;;;;4993346;28;20046;-80
2023/10/02 06:30:48;;;;;;;19.23;9.70;;;16.40;99.90;;;;;;4993402;28;20118;-80
2023/10/02 06:33:14;;;;;;;19.88;9.30;;;16.50;99.90;;;;;;4992963;28;20034;-80
2023/10/02 06:35:44;;;;;;;20.92;10.02;;;16.40;99.90;;;;;;4993327;28;20517;-79
2023/10/02 06:38:16;;;;;;;19.67;9.40;;;16.50;99.90;;;;;;4993577;28;20035;-78
2023/10/02 06:40:55;;;;;;;19.95;9.23;;;16.50;99.90;;;;;;4990608;28;20516;-77
2023/10/02 06:43:32;;;;;;;20.65;9.30;;;16.50;99.90;;;;;;4993729;28;20576;-77
2023/10/02 06:46:13;;;;;;;19.83;9.45;;;16.60;99.90;;;;;;4993124;28;20038;-77
2023/10/02 06:48:41;;;;;;;21.33;9.65;;;16.60;99.90;;;;;;4986740;28;20114;-77
2023/10/02 06:51:10;;;;;;;20.40;9.65;;;16.60;99.90;;;;;;4982392;28;20038;-77
2023/10/02 06:53:40;;;;;;;21.35;10.40;;;16.70;99.90;;;;;;4964294;28;20054;-77
2023/10/02 06:56:18;;;;;;;20.98;10.00;;;16.80;99.90;;;;;;4973974;28;20031;-77
2023/10/02 06:58:49;;;;;;;19.33;9.05;;;16.80;99.90;;;;;;4987411;28;20502;-77
2023/10/02 07:01:18;;;;;;;20.77;9.68;;;16.80;99.90;;;;;;4974034;28;20050;-77
2023/10/02 07:03:50;;;;;;;18.42;9.13;;;16.90;99.90;;;;;;4978573;28;20031;-80
2023/10/02 07:06:19;;;;;;;18.70;10.15;;;16.90;99.90;;;;;;4986106;28;20030;-80
2023/10/02 07:09:09;;;;;;;21.13;10.88;;;16.90;99.90;;;;;;4955903;28;20038;-79
2023/10/02 07:11:45;;;;;;;22.75;10.27;;;17.00;99.90;;;;;;4986327;28;20402;-81
2023/10/02 07:14:11;;;;;;;20.42;10.52;;;17.10;99.90;;;;;;4976707;28;20036;-80
2023/10/02 07:16:37;;;;;;;19.98;10.10;;;17.10;99.90;;;;;;4982033;28;20038;-80
2023/10/02 07:19:04;;;;;;;25.10;10.65;;;17.20;99.90;;;;;;4981520;28;20034;-80
2023/10/02 07:21:30;;;;;;;21.35;9.35;;;17.30;99.90;;;;;;4972479;28;20419;-80
2023/10/02 07:24:03;;;;;;;20.70;9.93;;;17.40;99.90;;;;;;4973353;28;20061;-80
2023/10/02 07:29:13;;;;;;;21.27;9.73;;;17.50;99.90;;;;;;4980403;28;20182;-80
2023/10/02 07:31:44;;;;;;;17.95;9.07;;;17.60;99.90;;;;;;4977896;28;20126;-80
2023/10/02 07:34:10;;;;;;;18.92;9.73;;;17.60;99.90;;;;;;4992755;28;20031;-81
2023/10/02 07:36:44;;;;;;;19.35;9.35;;;17.70;99.90;;;;;;4992958;28;20402;-81
2023/10/02 07:39:35;;;;;;;21.20;10.65;;;17.80;99.90;;;;;;4992348;28;20042;-80
2023/10/02 07:42:04;;;;;;;22.50;10.63;;;17.80;99.90;;;;;;4992552;28;20040;-80
2023/10/02 07:44:36;;;;;;;19.92;9.65;;;17.90;99.90;;;;;;4993456;28;20084;-80
2023/10/02 07:47:10;;;;;;;22.35;10.80;;;18.10;99.90;;;;;;4995944;28;20461;-80
2023/10/02 07:49:37;;;;;;;20.27;9.98;;;18.10;99.90;;;;;;4995920;28;20121;-80
2023/10/02 07:52:06;;;;;;;18.10;9.68;;;18.20;99.80;;;;;;4978938;28;20026;-79
2023/10/02 07:54:44;;;;;;;24.42;10.63;;;18.30;99.80;;;;;;4976769;28;20043;-80
2023/10/02 07:57:12;;;;;;;24.58;11.10;;;18.40;99.70;;;;;;4994841;28;20477;-79
2023/10/02 07:59:38;;;;;;;19.42;9.77;;;18.50;99.60;;;;;;4979030;28;20085;-80
2023/10/02 08:02:21;;;;;;;21.85;10.02;;;18.60;99.50;;;;;;4961804;28;20062;-81
2023/10/02 08:04:48;;;;;;;24.70;10.05;;;18.80;99.40;;;;;;4976451;28;20394;-78
2023/10/02 08:07:17;;;;;;;19.98;8.95;;;18.80;99.30;;;;;;4976428;28;20062;-80
2023/10/02 08:09:59;;;;;;;20.38;10.30;;;18.80;99.20;;;;;;4976937;28;20047;-80
2023/10/02 08:12:34;;;;;;;22.45;10.35;;;18.90;99.00;;;;;;4976779;28;20114;-82
2023/10/02 08:20:37;;;;;;;20.02;10.63;;;19.10;98.70;;;;;;4976411;28;20121;-81
2023/10/02 08:23:21;;;;;;;21.35;9.88;;;19.20;98.60;;;;;;4960920;28;20031;-81
2023/10/02 08:26:00;;;;;;;19.52;10.35;;;19.20;98.40;;;;;;4978118;28;20031;-82
2023/10/02 08:28:29;;;;;;;20.08;10.00;;;19.20;98.40;;;;;;4975814;28;20047;-81
2023/10/02 08:30:59;;;;;;;19.75;10.80;;;19.30;98.30;;;;;;4976259;28;20039;-82
2023/10/02 08:33:26;;;;;;;20.23;10.07;;;19.30;98.20;;;;;;4976263;28;20410;-82
2023/10/02 08:35:52;;;;;;;21.85;9.73;;;19.40;98.00;;;;;;4958776;28;20451;-81
2023/10/02 08:38:25;;;;;;;16.75;9.00;;;19.50;97.90;;;;;;4975890;28;20057;-82
2023/10/02 08:40:58;;;;;;;19.67;10.07;;;19.50;97.80;;;;;;4977300;28;20035;-82
2023/10/02 08:43:27;;;;;;;;;;;19.60;97.60;;;;;;4977765;28;20041;-81
2023/10/02 08:45:54;;;;;;;22.17;10.40;;;19.70;97.50;;;;;;4976409;28;19906;-82
2023/10/02 08:48:25;;;;;;;20.95;10.40;;;19.80;97.50;;;;;;4975395;28;20078;-82
2023/10/02 08:50:57;;;;;;;23.90;10.98;;;19.90;97.40;;;;;;4958457;28;20038;-82
2023/10/02 08:53:23;;;;;;;17.02;9.57;;;20.00;97.10;;;;;;4975494;28;20117;-81
2023/10/02 08:56:01;;;;;;;23.17;10.88;;;20.10;96.90;;;;;;4975615;28;20203;-83
2023/10/02 08:58:27;;;;;;;20.20;10.55;;;20.10;96.60;;;;;;4978545;28;20094;-82
2023/10/02 09:03:30;;;;;;;18.88;9.77;;;20.30;96.10;;;;;;4975597;28;20038;-81
2023/10/02 09:06:25;;;;;;;23.00;11.32;;;20.40;96.00;;;;;;4975387;28;20054;-81
2023/10/02 09:09:12;;;;;;;18.80;9.88;;;20.40;95.80;;;;;;4975077;28;20397;-82
2023/10/02 09:11:35;;;;;;;24.17;11.32;;;20.40;95.60;;;;;;4974948;28;20051;-82
2023/10/02 09:16:47;;;;;;;23.05;11.02;;;20.60;95.40;;;;;;4980433;28;20537;-82
2023/10/02 09:19:31;;;;;;;20.27;10.93;;;20.70;95.30;;;;;;4976529;28;20086;-81
2023/10/02 09:22:07;;;;;;;18.10;9.52;;;20.60;95.10;;;;;;4985302;28;20035;-82
2023/10/02 09:24:40;;;;;;;25.60;10.52;;;20.70;95.00;;;;;;4983590;28;20074;-82
2023/10/02 09:27:27;;;;;;;;;;;20.80;94.80;;;;;;4957796;28;20035;-81
2023/10/02 09:30:21;;;;;;;16.83;8.77;;;20.80;94.60;;;;;;4977392;28;19936;-82
2023/10/02 09:32:51;;;;;;;18.40;9.23;;;20.90;94.60;;;;;;4975120;28;20058;-83
2023/10/02 09:35:22;;;;;;;20.00;10.32;;;20.90;94.40;;;;;;4970272;28;20046;-83
2023/10/02 09:37:55;;;;;;;22.10;11.27;;;21.00;94.20;;;;;;4976543;28;20027;-82
2023/10/02 09:40:29;;;;;;;23.25;11.50;;;21.00;94.00;;;;;;4976816;28;20042;-81
2023/10/02 09:43:07;;;;;;;19.08;10.48;;;21.10;93.90;;;;;;4973580;28;20034;-81
2023/10/02 09:45:35;;;;;;;22.40;9.95;;;21.10;93.70;;;;;;4975841;28;20038;-82
2023/10/02 09:48:46;;;;;;;20.13;10.23;;;21.20;93.70;;;;;;4993774;28;20030;-84
2023/10/02 09:50:54;;;;;;;19.52;10.43;;;21.20;93.50;;;;;;4993724;28;20126;-83
2023/10/02 09:53:25;;;;;;;19.30;9.10;;;21.40;93.40;;;;;;4976574;28;20058;-83
2023/10/02 09:56:02;;;;;;;18.17;9.75;;;21.50;93.30;;;;;;4976379;28;20034;-83
2023/10/02 09:58:49;;;;;;;22.40;10.77;;;21.60;93.00;;;;;;4993673;28;20038;-82
2023/10/02 10:03:56;;;;;;;21.02;10.15;;;22.10;93.00;;;;;;4974618;28;20043;-82
2023/10/02 10:06:29;;;;;;;20.08;9.73;;;22.60;93.40;;;;;;4974231;28;20466;-83
2023/10/02 10:09:18;;;;;;;19.38;9.20;;;23.10;93.50;;;;;;4956290;28;20031;-83
2023/10/02 10:11:43;;;;;;;18.55;9.57;;;23.50;92.90;;;;;;4973841;28;20498;-82
2023/10/02 10:14:42;;;;;;;18.77;10.23;;;23.70;92.10;;;;;;4958020;28;20034;-82
2023/10/02 10:17:49;;;;;;;17.40;10.07;;;23.80;91.10;;;;;;4979322;28;20049;-83
2023/10/02 10:20:19;;;;;;;18.33;10.25;;;23.90;90.50;;;;;;4970551;28;20027;-82
2023/10/02 10:22:51;;;;;;;23.50;10.35;;;24.10;90.10;;;;;;4959444;28;20123;-82
2023/10/02 10:27:54;;;;;;;19.58;9.70;;;24.20;88.50;;;;;;4980725;28;20037;-82
2023/10/02 10:30:39;;;;;;;19.33;10.05;;;24.30;87.60;;;;;;4982214;28;20555;-82
2023/10/02 10:36:09;;;;;;;19.65;10.52;;;24.60;86.20;;;;;;4976279;28;20027;-82
2023/10/02 10:41:05;;;;;;;18.80;10.18;;;25.00;85.40;;;;;;4993167;28;20117;-82
2023/10/02 10:46:21;;;;;;;19.08;10.25;;;25.10;82.10;;;;;;4993638;28;20076;-82
2023/10/02 10:49:10;;;;;;;18.60;10.23;;;25.20;81.40;;;;;;4992885;28;20035;-82
2023/10/02 10:51:36;;;;;;;21.70;9.70;;;25.20;81.00;;;;;;4980337;28;20176;-82
2023/10/02 10:54:25;;;;;;;18.05;10.32;;;25.30;81.10;;;;;;4978191;28;20034;-82
2023/10/02 11:02:54;;;;;;;21.58;11.10;;;26.10;79.10;;;;;;4973926;28;20034;-83
2023/10/02 11:05:19;;;;;;;19.38;10.32;;;26.50;79.40;;;;;;4976602;28;20059;-83
2023/10/02 11:07:47;;;;;;;18.67;10.35;;;27.00;79.30;;;;;;4973310;28;20039;-82
2023/10/02 11:10:19;;;;;;;15.85;9.18;;;27.30;78.10;;;;;;4956178;28;20089;-82
2023/10/02 11:12:56;;;;;;;18.23;9.85;;;27.70;77.30;;;;;;4973694;28;20086;-83
2023/10/02 11:18:20;;;;;;;16.00;9.23;;;27.80;73.50;;;;;;4974165;28;20150;-82
2023/10/02 11:20:51;;;;;;;15.57;9.05;;;27.60;72.70;;;;;;4958401;28;20095;-82
2023/10/02 11:23:37;;;;;;;17.08;9.27;;;27.40;72.50;;;;;;4959751;28;20031;-83
2023/10/02 11:26:12;;;;;;;18.75;10.13;;;27.20;72.20;;;;;;4960222;28;20085;-82
2023/10/02 11:28:44;;;;;;;17.27;10.00;;;27.20;72.20;;;;;;4976162;28;20049;-83
2023/10/02 11:31:30;;;;;;;16.90;9.63;;;27.20;72.20;;;;;;4994500;28;20062;-83
2023/10/02 11:34:11;;;;;;;15.98;8.65;;;27.40;72.50;;;;;;4996843;28;20034;-83
2023/10/02 11:36:41;;;;;;;16.08;9.10;;;27.60;72.10;;;;;;4996448;28;20045;-84
2023/10/02 11:39:16;;;;;;;17.52;8.90;;;27.60;71.80;;;;;;4996661;28;20105;-83
2023/10/02 11:41:43;;;;;;;17.33;9.23;;;27.60;71.60;;;;;;4996794;28;20066;-83
2023/10/02 11:44:12;;;;;;;18.23;9.20;;;27.60;71.10;;;;;;4996380;28;20034;-84
2023/10/02 11:46:41;;;;;;;16.80;8.98;;;27.50;70.90;;;;;;4979373;28;20065;-83
2023/10/02 11:49:08;;;;;;;15.82;8.63;;;27.30;70.80;;;;;;4995240;28;20034;-83
2023/10/02 11:51:34;;;;;;;18.58;10.15;;;27.20;70.70;;;;;;4985898;28;20114;-84
2023/10/02 11:54:08;;;;;;;18.13;8.73;;;27.00;70.80;;;;;;4985491;28;20031;-83
2023/10/02 11:56:35;;;;;;;16.25;9.05;;;26.90;71.10;;;;;;4987161;28;20161;-83
2023/10/02 11:59:02;;;;;;;18.00;8.65;;;26.80;71.20;;;;;;4974971;28;20474;-84
2023/10/02 12:01:28;;;;;;;15.93;8.52;;;26.80;71.30;;;;;;4978452;28;20054;-84
2023/10/02 12:03:57;;;;;;;16.00;7.72;;;26.80;71.40;;;;;;4996306;28;20052;-83
2023/10/02 12:06:27;;;;;;;17.42;9.63;;;26.80;71.50;;;;;;4978587;28;20121;-83
2023/10/02 12:08:58;;;;;;;14.80;9.07;;;26.90;71.40;;;;;;4989208;28;20121;-83
2023/10/02 12:11:24;;;;;;;16.58;8.15;;;27.00;71.20;;;;;;4978257;28;20030;-83
2023/10/02 12:13:51;;;;;;;18.00;9.18;;;27.10;71.00;;;;;;4996153;28;20429;-84
2023/10/02 12:16:18;;;;;;;16.83;8.73;;;27.10;71.00;;;;;;4995598;28;20034;-84
2023/10/02 12:18:43;;;;;;;16.05;8.50;;;27.00;70.90;;;;;;4977101;28;20042;-84
2023/10/02 12:21:12;;;;;;;16.15;8.35;;;27.10;71.00;;;;;;4998129;28;20043;-83
2023/10/02 12:23:43;;;;;;;17.63;9.10;;;27.10;70.90;;;;;;4990517;28;20038;-84
2023/10/02 12:26:20;;;;;;;18.17;8.57;;;27.20;70.80;;;;;;4977541;28;20041;-84
2023/10/02 12:28:47;;;;;;;16.08;8.80;;;27.20;70.70;;;;;;4976169;28;20063;-83
2023/10/02 12:31:20;;;;;;;15.50;8.38;;;27.30;70.90;;;;;;4957969;28;20074;-84
2023/10/02 12:33:46;;;;;;;;;;;27.40;71.00;;;;;;4959373;28;20031;-82
2023/10/02 12:36:17;;;;;;;14.98;7.97;;;27.50;71.10;;;;;;4958410;28;19993;-82
2023/10/02 12:38:47;;;;;;;15.13;8.27;;;27.70;71.10;;;;;;4958750;28;20041;-83
2023/10/02 12:41:21;;;;;;;19.33;9.10;;;28.00;70.90;;;;;;4978545;28;20049;-83
2023/10/02 12:43:55;;;;;;;16.45;8.82;;;28.10;70.10;;;;;;4976538;28;20037;-83
2023/10/02 12:46:29;;;;;;;16.52;9.50;;;28.20;69.80;;;;;;4976618;28;20031;-83
2023/10/02 12:49:00;;;;;;;15.02;8.48;;;28.20;69.50;;;;;;4975954;28;20035;-84
2023/10/02 12:51:28;;;;;;;16.23;9.57;;;28.20;69.20;;;;;;4975689;28;20038;-83
2023/10/02 12:53:54;;;;;;;16.23;8.65;;;28.20;69.00;;;;;;4975480;28;20122;-83
2023/10/02 12:56:21;;;;;;;16.38;8.95;;;28.20;68.90;;;;;;4975618;28;20061;-84
2023/10/02 12:58:56;;;;;;;15.43;8.73;;;28.30;68.90;;;;;;4975426;28;20026;-84
2023/10/02 13:01:24;;;;;;;16.38;9.10;;;28.30;68.60;;;;;;4958238;28;20050;-83
2023/10/02 13:03:54;;;;;;;19.05;9.43;;;28.30;68.50;;;;;;4957852;28;20086;-82
2023/10/02 13:06:22;;;;;;;14.57;8.13;;;28.20;68.60;;;;;;4958272;28;20045;-84
2023/10/02 13:08:48;;;;;;;16.15;9.02;;;28.20;68.80;;;;;;4957760;28;20495;-84
2023/10/02 13:11:18;;;;;;;16.98;9.10;;;28.20;68.80;;;;;;4975713;28;20047;-85
2023/10/02 13:13:49;;;;;;;16.02;8.57;;;28.20;68.60;;;;;;4975393;28;20517;-83
2023/10/02 13:16:16;;;;;;;15.27;9.32;;;28.30;68.50;;;;;;4972500;28;20130;-84
2023/10/02 13:18:45;;;;;;;21.10;9.15;;;28.40;68.30;;;;;;4974774;28;20034;-83
2023/10/02 13:21:14;;;;;;;18.15;8.73;;;28.40;68.10;;;;;;4975525;28;20191;-87
2023/10/02 13:23:41;;;;;;;18.17;10.10;;;28.40;67.90;;;;;;4976054;28;20039;-82
2023/10/02 13:26:10;;;;;;;17.17;9.55;;;28.40;67.90;;;;;;4958550;28;20031;-82
2023/10/02 13:28:37;;;;;;;19.88;10.90;;;28.30;67.80;;;;;;4958611;28;20503;-82
2023/10/02 13:31:13;;;;;;;16.63;9.88;;;28.20;67.80;;;;;;4976396;28;20510;-82
2023/10/02 13:33:46;;;;;;;15.73;9.25;;;28.10;67.80;;;;;;4976179;28;20027;-82
2023/10/02 13:36:17;;;;;;;18.88;9.82;;;28.10;68.60;;;;;;4976447;28;20075;-82
2023/10/02 13:38:44;;;;;;;19.50;10.25;;;28.10;68.20;;;;;;4976925;28;20034;-83
2023/10/02 13:41:11;;;;;;;19.98;10.25;;;28.20;68.30;;;;;;4976863;28;20031;-82
2023/10/02 13:43:48;;;;;;;19.27;9.10;;;28.30;68.20;;;;;;4959579;28;20121;-82
2023/10/02 13:46:16;;;;;;;19.95;10.35;;;28.40;68.00;;;;;;4975248;28;20428;-83
2023/10/02 13:48:43;;;;;;;16.85;9.60;;;28.60;68.00;;;;;;4974622;28;20065;-82
2023/10/02 13:51:09;;;;;;;16.35;9.38;;;28.80;67.80;;;;;;4975057;28;20443;-82
2023/10/02 13:53:36;;;;;;;14.15;8.57;;;29.00;67.60;;;;;;4974722;28;20065;-83
2023/10/02 13:56:10;;;;;;;19.02;10.10;;;29.20;67.10;;;;;;4954144;28;20090;-83
2023/10/02 13:58:38;;;;;;;16.55;9.15;;;29.40;66.60;;;;;;4956424;28;20475;-82
2023/10/02 14:01:05;;;;;;;17.25;9.32;;;29.60;66.10;;;;;;4974164;28;20134;-82
2023/10/02 14:03:31;;;;;;;17.38;9.05;;;29.70;65.90;;;;;;4966099;28;20060;-82
2023/10/02 14:05:58;;;;;;;15.60;8.85;;;29.80;65.70;;;;;;4961516;28;20041;-82